Latest Coastal Weather Observations for Hillarys Point Boat Harbour

IDW60701

Issued at 1:15 pm WST Monday 24 November 2014 (issued every 10 minutes, with the page automatically refreshed every 10 minutes)

About coastal observations | Map of coastal stations | Coastal observations for WA | Marine services | Other Formats
Station Details ID: 009265 Name: HILLARYS BOAT HARBOUR NTC AWS Lat: -31.83 Lon: 115.74 Height: 0.0 m
Data from the previous 72 hours. | See also: Recent months for locations in Western Australia
Date/Time
WST
Temp

°C
Wind Pressure Rain
since 9am
mm
Weather Cloud Vis
km
Sea
Height
m
Swell
Dir
 
Speed
knots
Gust
knots
hPa Trend Height
m
Period
s
Dir
24/01:00pm 19.3 SSW 8 15 1018.9 - - - - - - - - -
24/12:30pm 19.6 SW 10 16 1019.2 - - - - - - - - -
24/12:00pm 22.9 SE 3 9 1019.5 - - - - - - - - -
24/11:30am 21.7 SSE 3 7 1020.0 - - - - - - - - -
24/11:00am 22.4 ESE 4 10 1020.4 - - - - - - - - -
24/10:30am 21.0 SE 4 9 1020.7 - - - - - - - - -
24/10:00am 20.6 SE 3 7 1021.0 - - - - - - - - -
24/09:30am 19.1 ENE 6 10 1021.1 - - - - - - - - -
24/09:00am 18.1 E 6 12 1021.4 - - - - - - - - -
24/08:30am 16.8 E 7 11 1021.7 - - - - - - - - -
24/08:00am 16.0 E 8 17 1021.8 - - - - - - - - -
24/07:30am 15.4 E 9 17 1021.7 - - - - - - - - -
24/07:00am 14.9 E 8 17 1021.6 - - - - - - - - -
24/06:30am 14.0 E 6 11 1021.6 - - - - - - - - -
24/06:00am 13.7 E 4 14 1021.6 - - - - - - - - -
24/05:30am 13.1 ESE 2 7 1021.5 - - - - - - - - -
24/05:00am 13.0 ESE 1 4 1021.3 - - - - - - - - -
24/04:30am 13.2 ESE 2 6 1020.8 - - - - - - - - -
24/04:00am 13.3 SE 2 6 1020.5 - - - - - - - - -
24/03:30am 13.8 SSE 4 8 1020.6 - - - - - - - - -
24/03:00am 14.0 SSE 4 8 1020.4 - - - - - - - - -
24/02:30am 14.2 SSE 5 8 1020.2 - - - - - - - - -
24/02:00am 14.5 SSE 5 9 1020.2 - - - - - - - - -
24/01:30am 14.7 SSE 6 13 1020.1 - - - - - - - - -
24/01:00am 15.3 S 6 12 1020.1 - - - - - - - - -
24/12:30am 15.5 SSE 5 11 1019.9 - - - - - - - - -
24/12:00am 16.0 S 5 13 1019.9 - - - - - - - - -
 
Date/Time
WST
Temp

°C
Wind Pressure Rain
since 9am
mm
Weather Cloud Vis
km
Sea
Height
m
Swell
Dir
 
Speed
knots
Gust
knots
hPa Trend Height
m
Period
s
Dir
23/11:30pm 16.3 S 5 11 1019.9 - - - - - - - - -
23/11:00pm 17.0 S 5 12 1019.9 - - - - - - - - -
23/10:30pm 17.6 SSE 6 12 1019.7 - - - - - - - - -
23/10:00pm 18.0 SSE 6 11 1019.7 - - - - - - - - -
23/09:30pm 18.4 S 6 15 1019.6 - - - - - - - - -
23/09:00pm 18.4 SSW 7 13 1019.4 - - - - - - - - -
23/08:30pm 18.4 SSW 7 16 1019.1 - - - - - - - - -
23/08:00pm 18.1 SSW 7 14 1018.8 - - - - - - - - -
23/07:30pm 18.0 SSW 7 15 1018.5 - - - - - - - - -
23/07:00pm 18.1 SSW 8 17 1018.3 - - - - - - - - -
23/06:30pm 18.2 SSW 9 16 1017.9 - - - - - - - - -
23/06:00pm 18.3 SSW 8 16 1017.5 - - - - - - - - -
23/05:30pm 18.4 SSW 10 16 1017.2 - - - - - - - - -
23/05:00pm 18.7 SSW 10 16 1017.1 - - - - - - - - -
23/04:30pm 18.7 SSW 10 18 1017.0 - - - - - - - - -
23/04:00pm 18.6 SSW 10 20 1016.8 - - - - - - - - -
23/03:30pm 18.9 SSW 9 15 1016.9 - - - - - - - - -
23/03:00pm 19.1 SSW 8 17 1016.8 - - - - - - - - -
23/02:30pm 19.3 SSW 8 14 1016.9 - - - - - - - - -
23/02:00pm 19.1 SSW 9 17 1017.0 - - - - - - - - -
23/01:30pm 19.1 SSW 8 14 1017.2 - - - - - - - - -
23/01:00pm 19.3 SSW 8 15 1017.2 - - - - - - - - -
23/12:30pm 18.8 SW 9 13 1017.4 - - - - - - - - -
23/12:00pm 19.1 SSW 6 10 1017.6 - - - - - - - - -
23/11:30am 18.8 SSW 9 16 1017.6 - - - - - - - - -
23/11:00am 19.4 SSW 8 13 1017.6 - - - - - - - - -
23/10:30am 19.2 SSW 7 13 1017.6 - - - - - - - - -
23/10:00am 18.9 SSW 9 16 1017.5 - - - - - - - - -
23/09:30am 19.3 SSW 8 15 1017.2 - - - - - - - - -
23/09:00am 18.5 SSW 7 14 1017.3 - - - - - - - - -
23/08:30am 18.8 SSW 8 13 1017.1 - - - - - - - - -
23/08:00am 18.4 SSW 8 14 1017.1 - - - - - - - - -
23/07:30am 18.2 SSW 10 18 1016.7 - - - - - - - - -
23/07:00am 18.7 SSW 8 14 1016.3 - - - - - - - - -
23/06:30am 18.5 SW 12 17 1015.9 - - - - - - - - -
23/06:00am 18.6 SW 9 16 1015.6 - - - - - - - - -
23/05:30am 18.2 SSW 7 12 1015.1 - - - - - - - - -
23/05:00am 18.1 SSW 9 16 1014.8 - - - - - - - - -
23/04:30am 18.3 SSW 8 14 1014.7 - - - - - - - - -
23/04:00am 17.8 SSW 9 15 1014.5 - - - - - - - - -
23/03:30am 17.9 SW 11 19 1014.3 - - - - - - - - -
23/03:00am 18.0 SW 12 17 1014.4 - - - - - - - - -
23/02:30am 18.1 SW 11 16 1014.3 - - - - - - - - -
23/02:00am 18.2 SSW 9 16 1014.2 - - - - - - - - -
23/01:30am 18.2 SSW 9 16 1014.2 - - - - - - - - -
23/01:00am 18.3 SSW 10 16 1014.4 - - - - - - - - -
23/12:30am 18.5 SSW 9 15 1014.5 - - - - - - - - -
23/12:00am 18.5 SW 11 15 1014.6 - - - - - - - - -
 
Date/Time
WST
Temp

°C
Wind Pressure Rain
since 9am
mm
Weather Cloud Vis
km
Sea
Height
m
Swell
Dir
 
Speed
knots
Gust
knots
hPa Trend Height
m
Period
s
Dir
22/11:30pm 18.3 SW 10 15 1014.8 - - - - - - - - -
22/11:00pm 18.4 SW 9 14 1014.9 - - - - - - - - -
22/10:30pm 18.5 SW 9 16 1015.1 - - - - - - - - -
22/10:00pm 18.4 SW 8 13 1015.3 - - - - - - - - -
22/09:30pm 18.3 SW 11 16 1015.3 - - - - - - - - -
22/09:00pm 18.4 SW 9 13 1015.1 - - - - - - - - -
22/08:30pm 18.4 SW 10 15 1015.1 - - - - - - - - -
22/08:00pm 18.5 SW 9 14 1015.0 - - - - - - - - -
22/07:30pm 18.5 SW 10 14 1014.7 - - - - - - - - -
22/07:00pm 18.7 SW 9 13 1014.7 - - - - - - - - -
22/06:30pm 18.7 SW 10 15 1014.5 - - - - - - - - -
22/06:00pm 19.0 SW 10 13 1014.3 - - - - - - - - -
22/05:30pm 19.2 SW 10 13 1014.1 - - - - - - - - -
22/05:00pm 18.9 SW 10 14 1014.1 - - - - - - - - -
22/04:30pm 19.6 SW 9 14 1014.1 - - - - - - - - -
22/04:00pm 19.4 WSW 10 14 1014.1 - - - - - - - - -
22/03:30pm 19.4 SW 10 14 1014.0 - - - - - - - - -
22/03:00pm 19.2 SW 11 15 1013.9 - - - - - - - - -
22/02:30pm 19.1 SW 10 14 1014.0 - - - - - - - - -
22/02:00pm 19.8 SW 8 13 1014.1 - - - - - - - - -
22/01:30pm 19.7 SW 8 12 1014.2 - - - - - - - - -
22/01:00pm 19.3 SW 7 10 1014.2 - - - - - - - - -
22/12:30pm 19.4 SW 8 12 1014.2 - - - - - - - - -
22/12:00pm 18.9 SW 8 11 1014.3 - - - - - - - - -
22/11:30am 19.8 SW 7 12 1014.2 - - - - - - - - -
22/11:00am 19.5 SSW 6 12 1014.1 - - - - - - - - -
22/10:30am 19.3 SW 7 12 1014.2 - - - - - - - - -
22/10:00am 18.7 SSW 5 10 1014.2 - - - - - - - - -
22/09:30am 18.6 SSW 6 12 1014.2 - - - - - - - - -
22/09:00am 18.9 SSW 6 12 1014.0 - - - - - - - - -
22/08:30am 18.6 SSW 4 8 1013.8 - - - - - - - - -
22/08:00am 18.4 SSW 4 8 1013.8 - - - - - - - - -
22/07:30am 17.5 SSW 4 12 1013.6 - - - - - - - - -
22/07:00am 17.3 SSW 4 10 1013.3 - - - - - - - - -
22/06:30am 16.9 SSW 6 16 1013.0 - - - - - - - - -
22/06:00am 17.1 S 3 7 1012.9 - - - - - - - - -
22/05:30am 17.0 S 5 12 1012.7 - - - - - - - - -
22/05:00am 17.8 SW 6 11 1012.3 - - - - - - - - -
22/04:30am 17.4 SW 6 10 1012.1 - - - - - - - - -
22/04:00am 17.2 SSW 7 14 1012.1 - - - - - - - - -
22/03:30am 17.3 SSW 8 14 1011.9 - - - - - - - - -
22/03:00am 17.5 SW 7 12 1011.9 - - - - - - - - -
22/02:30am 17.5 SW 8 14 1011.8 - - - - - - - - -
22/02:00am 18.2 SW 7 12 1011.8 - - - - - - - - -
22/01:30am 18.3 SW 9 13 1011.9 - - - - - - - - -
22/01:00am 18.4 WSW 11 15 1012.0 - - - - - - - - -
22/12:30am 18.9 SW 7 13 1012.2 - - - - - - - - -
22/12:00am 19.0 WSW 8 12 1012.2 - - - - - - - - -
 
Date/Time
WST
Temp

°C
Wind Pressure Rain
since 9am
mm
Weather Cloud Vis
km
Sea
Height
m
Swell
Dir
 
Speed
knots
Gust
knots
hPa Trend Height
m
Period
s
Dir
21/11:30pm 18.6 SW 5 8 1012.5 - - - - - - - - -
21/11:00pm 18.5 SW 7 10 1012.6 - - - - - - - - -
21/10:30pm 18.5 SW 7 13 1012.7 - - - - - - - - -
21/10:00pm 18.7 SW 9 13 1012.8 - - - - - - - - -
21/09:30pm 18.6 SW 9 13 1012.9 - - - - - - - - -
21/09:00pm 18.5 SW 10 14 1012.8 - - - - - - - - -
21/08:30pm 18.8 WSW 7 11 1012.5 - - - - - - - - -
21/08:00pm 18.8 WSW 8 10 1012.4 - - - - - - - - -
21/07:30pm 18.8 WSW 8 12 1012.3 - - - - - - - - -
21/07:00pm 18.9 WSW 9 12 1012.2 - - - - - - - - -
21/06:30pm 18.9 WSW 8 11 1012.0 - - - - - - - - -
21/06:00pm 18.9 WSW 8 11 1011.8 - - - - - - - - -
21/05:30pm 19.0 WSW 10 13 1011.8 - - - - - - - - -
21/05:00pm 19.3 SW 9 13 1011.5 - - - - - - - - -
21/04:30pm 19.1 SW 10 15 1011.8 - - - - - - - - -
21/04:00pm 19.3 WSW 9 15 1012.0 - - - - - - - - -
21/03:30pm 19.3 SW 10 15 1012.0 - - - - - - - - -
21/03:00pm 19.4 WSW 10 14 1011.9 - - - - - - - - -
21/02:30pm 19.4 WSW 9 13 1011.9 - - - - - - - - -
21/02:00pm 19.5 WSW 10 13 1011.9 - - - - - - - - -
21/01:30pm 19.8 SW 9 12 1012.0 - - - - - - - - -

Other Formats:

Comma delimited format used in spreadsheet applications
http://www.bom.gov.au/fwo/IDW60701/IDW60701.95605.axf

JavaScript Object Notation format (JSON) in row-major order
http://www.bom.gov.au/fwo/IDW60701/IDW60701.95605.json